sensor_id;sensor_type;location;lat;lon;timestamp;temperature;humidity
60234;DHT22;49514;43.538;-5.708;2023-05-07T00:02:19;20.20;99.90
60234;DHT22;49514;43.538;-5.708;2023-05-07T00:04:46;20.10;99.90
60234;DHT22;49514;43.538;-5.708;2023-05-07T00:07:12;20.10;99.90
60234;DHT22;49514;43.538;-5.708;2023-05-07T00:09:39;20.10;99.90
60234;DHT22;49514;43.538;-5.708;2023-05-07T00:12:07;20.10;99.90
60234;DHT22;49514;43.538;-5.708;2023-05-07T00:14:33;20.00;99.90
60234;DHT22;49514;43.538;-5.708;2023-05-07T00:17:00;20.00;99.90
60234;DHT22;49514;43.538;-5.708;2023-05-07T00:19:27;20.00;99.90
60234;DHT22;49514;43.538;-5.708;2023-05-07T00:21:54;20.00;99.90
60234;DHT22;49514;43.538;-5.708;2023-05-07T00:24:22;20.00;99.90
60234;DHT22;49514;43.538;-5.708;2023-05-07T00:26:49;20.00;99.90
60234;DHT22;49514;43.538;-5.708;2023-05-07T00:29:16;20.00;99.90
60234;DHT22;49514;43.538;-5.708;2023-05-07T00:31:43;20.00;99.90
60234;DHT22;49514;43.538;-5.708;2023-05-07T00:34:10;19.90;99.90
60234;DHT22;49514;43.538;-5.708;2023-05-07T00:36:37;19.90;99.90
60234;DHT22;49514;43.538;-5.708;2023-05-07T00:39:04;19.90;99.90
60234;DHT22;49514;43.538;-5.708;2023-05-07T00:41:30;19.90;99.90
60234;DHT22;49514;43.538;-5.708;2023-05-07T00:43:57;19.80;99.90
60234;DHT22;49514;43.538;-5.708;2023-05-07T00:46:25;19.90;99.90
60234;DHT22;49514;43.538;-5.708;2023-05-07T00:48:52;19.90;99.90
60234;DHT22;49514;43.538;-5.708;2023-05-07T00:51:25;19.90;99.90
60234;DHT22;49514;43.538;-5.708;2023-05-07T00:53:56;19.80;99.90
60234;DHT22;49514;43.538;-5.708;2023-05-07T00:56:23;19.70;99.90
60234;DHT22;49514;43.538;-5.708;2023-05-07T00:58:51;19.70;99.90
60234;DHT22;49514;43.538;-5.708;2023-05-07T01:01:18;19.70;99.90
60234;DHT22;49514;43.538;-5.708;2023-05-07T01:03:44;19.60;99.90
60234;DHT22;49514;43.538;-5.708;2023-05-07T01:06:12;19.50;99.90
60234;DHT22;49514;43.538;-5.708;2023-05-07T01:08:40;19.40;99.90
60234;DHT22;49514;43.538;-5.708;2023-05-07T01:11:08;19.40;99.90
60234;DHT22;49514;43.538;-5.708;2023-05-07T01:13:35;19.40;99.90
60234;DHT22;49514;43.538;-5.708;2023-05-07T01:16:03;19.40;99.90
60234;DHT22;49514;43.538;-5.708;2023-05-07T01:18:31;19.40;99.90
60234;DHT22;49514;43.538;-5.708;2023-05-07T01:20:59;19.40;99.90
60234;DHT22;49514;43.538;-5.708;2023-05-07T01:23:27;19.40;99.90
60234;DHT22;49514;43.538;-5.708;2023-05-07T01:25:54;19.30;99.90
60234;DHT22;49514;43.538;-5.708;2023-05-07T01:28:25;19.30;99.90
60234;DHT22;49514;43.538;-5.708;2023-05-07T01:30:58;19.30;99.90
60234;DHT22;49514;43.538;-5.708;2023-05-07T01:33:31;19.30;99.90
60234;DHT22;49514;43.538;-5.708;2023-05-07T01:35:59;19.30;99.90
60234;DHT22;49514;43.538;-5.708;2023-05-07T01:38:30;19.30;99.90
60234;DHT22;49514;43.538;-5.708;2023-05-07T01:40:58;19.30;99.90
60234;DHT22;49514;43.538;-5.708;2023-05-07T01:43:25;19.30;99.90
60234;DHT22;49514;43.538;-5.708;2023-05-07T01:45:52;19.20;99.90
60234;DHT22;49514;43.538;-5.708;2023-05-07T01:48:20;19.20;99.90
60234;DHT22;49514;43.538;-5.708;2023-05-07T01:50:48;19.30;99.90
60234;DHT22;49514;43.538;-5.708;2023-05-07T01:53:15;19.20;99.90
60234;DHT22;49514;43.538;-5.708;2023-05-07T01:55:42;19.30;99.90
60234;DHT22;49514;43.538;-5.708;2023-05-07T02:00:37;19.30;99.90
60234;DHT22;49514;43.538;-5.708;2023-05-07T02:05:40;19.20;99.90
60234;DHT22;49514;43.538;-5.708;2023-05-07T02:08:17;19.20;99.90
60234;DHT22;49514;43.538;-5.708;2023-05-07T02:10:44;19.10;99.90
60234;DHT22;49514;43.538;-5.708;2023-05-07T02:13:10;19.10;99.90
60234;DHT22;49514;43.538;-5.708;2023-05-07T02:15:37;19.00;99.90
60234;DHT22;49514;43.538;-5.708;2023-05-07T02:18:06;18.90;99.90
60234;DHT22;49514;43.538;-5.708;2023-05-07T02:20:33;18.90;99.90
60234;DHT22;49514;43.538;-5.708;2023-05-07T02:22:59;18.80;99.90
60234;DHT22;49514;43.538;-5.708;2023-05-07T02:25:28;18.80;99.90
60234;DHT22;49514;43.538;-5.708;2023-05-07T02:27:56;18.70;99.90
60234;DHT22;49514;43.538;-5.708;2023-05-07T02:30:31;18.70;99.90
60234;DHT22;49514;43.538;-5.708;2023-05-07T02:32:59;18.70;99.90
60234;DHT22;49514;43.538;-5.708;2023-05-07T02:35:26;18.60;99.90
60234;DHT22;49514;43.538;-5.708;2023-05-07T02:37:53;18.70;99.90
60234;DHT22;49514;43.538;-5.708;2023-05-07T02:40:21;18.70;99.90
60234;DHT22;49514;43.538;-5.708;2023-05-07T02:42:48;18.70;99.90
60234;DHT22;49514;43.538;-5.708;2023-05-07T02:45:15;18.70;99.90
60234;DHT22;49514;43.538;-5.708;2023-05-07T02:47:43;18.80;99.90
60234;DHT22;49514;43.538;-5.708;2023-05-07T02:50:10;18.70;99.90
60234;DHT22;49514;43.538;-5.708;2023-05-07T02:52:36;18.70;99.90
60234;DHT22;49514;43.538;-5.708;2023-05-07T02:55:03;18.70;99.90
60234;DHT22;49514;43.538;-5.708;2023-05-07T02:57:30;18.70;99.90
60234;DHT22;49514;43.538;-5.708;2023-05-07T02:59:58;18.60;99.90
60234;DHT22;49514;43.538;-5.708;2023-05-07T03:02:25;18.50;99.90
60234;DHT22;49514;43.538;-5.708;2023-05-07T03:04:52;18.50;99.90
60234;DHT22;49514;43.538;-5.708;2023-05-07T03:07:19;18.40;99.90
60234;DHT22;49514;43.538;-5.708;2023-05-07T03:09:46;18.30;99.90
60234;DHT22;49514;43.538;-5.708;2023-05-07T03:12:13;18.30;99.90
60234;DHT22;49514;43.538;-5.708;2023-05-07T03:14:39;18.20;99.90
60234;DHT22;49514;43.538;-5.708;2023-05-07T03:17:06;18.10;99.90
60234;DHT22;49514;43.538;-5.708;2023-05-07T03:19:33;18.10;99.90
60234;DHT22;49514;43.538;-5.708;2023-05-07T03:21:59;18.10;99.90
60234;DHT22;49514;43.538;-5.708;2023-05-07T03:24:26;18.00;99.90
60234;DHT22;49514;43.538;-5.708;2023-05-07T03:26:53;18.00;99.90
60234;DHT22;49514;43.538;-5.708;2023-05-07T03:29:20;17.90;99.90
60234;DHT22;49514;43.538;-5.708;2023-05-07T03:31:47;17.90;99.90
60234;DHT22;49514;43.538;-5.708;2023-05-07T03:34:13;17.80;99.90
60234;DHT22;49514;43.538;-5.708;2023-05-07T03:36:40;17.80;99.90
60234;DHT22;49514;43.538;-5.708;2023-05-07T03:39:09;17.70;99.90
60234;DHT22;49514;43.538;-5.708;2023-05-07T03:41:39;17.70;99.90
60234;DHT22;49514;43.538;-5.708;2023-05-07T03:44:06;17.60;99.90
60234;DHT22;49514;43.538;-5.708;2023-05-07T03:46:33;17.60;99.90
60234;DHT22;49514;43.538;-5.708;2023-05-07T03:49:01;17.60;99.90
60234;DHT22;49514;43.538;-5.708;2023-05-07T03:51:28;17.50;99.90
60234;DHT22;49514;43.538;-5.708;2023-05-07T03:53:54;17.40;99.90
60234;DHT22;49514;43.538;-5.708;2023-05-07T03:56:24;17.40;99.90
60234;DHT22;49514;43.538;-5.708;2023-05-07T03:58:55;17.40;99.90
60234;DHT22;49514;43.538;-5.708;2023-05-07T04:01:21;17.30;99.90
60234;DHT22;49514;43.538;-5.708;2023-05-07T04:03:48;17.30;99.90
60234;DHT22;49514;43.538;-5.708;2023-05-07T04:06:18;17.30;99.90
60234;DHT22;49514;43.538;-5.708;2023-05-07T04:08:47;17.30;99.90
60234;DHT22;49514;43.538;-5.708;2023-05-07T04:11:14;17.30;99.90
60234;DHT22;49514;43.538;-5.708;2023-05-07T04:13:41;17.30;99.90
60234;DHT22;49514;43.538;-5.708;2023-05-07T04:16:09;17.40;99.90
60234;DHT22;49514;43.538;-5.708;2023-05-07T04:18:37;17.40;99.90
60234;DHT22;49514;43.538;-5.708;2023-05-07T04:21:05;17.40;99.90
60234;DHT22;49514;43.538;-5.708;2023-05-07T04:23:35;17.50;99.90
60234;DHT22;49514;43.538;-5.708;2023-05-07T04:26:05;17.40;99.90
60234;DHT22;49514;43.538;-5.708;2023-05-07T04:28:41;17.40;99.90
60234;DHT22;49514;43.538;-5.708;2023-05-07T04:31:08;17.40;99.90
60234;DHT22;49514;43.538;-5.708;2023-05-07T04:33:37;17.30;99.90
60234;DHT22;49514;43.538;-5.708;2023-05-07T04:36:05;17.30;99.90
60234;DHT22;49514;43.538;-5.708;2023-05-07T04:38:37;17.20;99.90
60234;DHT22;49514;43.538;-5.708;2023-05-07T04:41:08;17.50;99.90
60234;DHT22;49514;43.538;-5.708;2023-05-07T04:46:08;17.10;99.90
60234;DHT22;49514;43.538;-5.708;2023-05-07T04:48:35;17.20;99.90
60234;DHT22;49514;43.538;-5.708;2023-05-07T04:51:05;17.20;99.90
60234;DHT22;49514;43.538;-5.708;2023-05-07T04:53:33;17.20;99.90
60234;DHT22;49514;43.538;-5.708;2023-05-07T04:56:00;17.20;99.90
60234;DHT22;49514;43.538;-5.708;2023-05-07T04:58:32;17.20;99.90
60234;DHT22;49514;43.538;-5.708;2023-05-07T05:01:00;17.10;99.90
60234;DHT22;49514;43.538;-5.708;2023-05-07T05:03:27;17.10;99.90
60234;DHT22;49514;43.538;-5.708;2023-05-07T05:05:54;17.20;99.90
60234;DHT22;49514;43.538;-5.708;2023-05-07T05:08:23;17.10;99.90
60234;DHT22;49514;43.538;-5.708;2023-05-07T05:10:49;17.20;99.90
60234;DHT22;49514;43.538;-5.708;2023-05-07T05:13:16;17.10;99.90
60234;DHT22;49514;43.538;-5.708;2023-05-07T05:15:43;17.10;99.90
60234;DHT22;49514;43.538;-5.708;2023-05-07T05:18:10;17.10;99.90
60234;DHT22;49514;43.538;-5.708;2023-05-07T05:20:38;17.10;99.90
60234;DHT22;49514;43.538;-5.708;2023-05-07T05:23:04;17.10;99.90
60234;DHT22;49514;43.538;-5.708;2023-05-07T05:25:33;17.10;99.90
60234;DHT22;49514;43.538;-5.708;2023-05-07T05:28:00;17.00;99.90
60234;DHT22;49514;43.538;-5.708;2023-05-07T05:30:28;17.00;99.90
60234;DHT22;49514;43.538;-5.708;2023-05-07T05:32:55;17.00;99.90
60234;DHT22;49514;43.538;-5.708;2023-05-07T05:40:19;17.20;99.90
60234;DHT22;49514;43.538;-5.708;2023-05-07T05:42:47;17.10;99.90
60234;DHT22;49514;43.538;-5.708;2023-05-07T05:47:41;17.20;99.90
60234;DHT22;49514;43.538;-5.708;2023-05-07T05:50:08;17.20;99.90
60234;DHT22;49514;43.538;-5.708;2023-05-07T05:52:35;17.30;99.90
60234;DHT22;49514;43.538;-5.708;2023-05-07T05:55:03;17.40;99.90
60234;DHT22;49514;43.538;-5.708;2023-05-07T05:57:30;17.50;99.90
60234;DHT22;49514;43.538;-5.708;2023-05-07T05:59:57;17.60;99.90
60234;DHT22;49514;43.538;-5.708;2023-05-07T06:02:24;17.70;99.90
60234;DHT22;49514;43.538;-5.708;2023-05-07T06:04:51;17.80;99.90
60234;DHT22;49514;43.538;-5.708;2023-05-07T06:07:20;17.80;99.90
60234;DHT22;49514;43.538;-5.708;2023-05-07T06:09:47;17.80;99.90
60234;DHT22;49514;43.538;-5.708;2023-05-07T06:12:13;17.90;99.90
60234;DHT22;49514;43.538;-5.708;2023-05-07T06:14:43;17.90;99.90
60234;DHT22;49514;43.538;-5.708;2023-05-07T06:17:10;17.90;99.90
60234;DHT22;49514;43.538;-5.708;2023-05-07T06:19:36;18.00;99.90
60234;DHT22;49514;43.538;-5.708;2023-05-07T06:22:04;18.00;99.90
60234;DHT22;49514;43.538;-5.708;2023-05-07T06:24:32;18.00;99.90
60234;DHT22;49514;43.538;-5.708;2023-05-07T06:26:59;18.10;99.90
60234;DHT22;49514;43.538;-5.708;2023-05-07T06:29:27;18.10;99.90
60234;DHT22;49514;43.538;-5.708;2023-05-07T06:31:54;18.10;99.90
60234;DHT22;49514;43.538;-5.708;2023-05-07T06:34:22;18.20;99.90
60234;DHT22;49514;43.538;-5.708;2023-05-07T06:36:49;18.20;99.90
60234;DHT22;49514;43.538;-5.708;2023-05-07T06:39:31;18.20;99.90
60234;DHT22;49514;43.538;-5.708;2023-05-07T06:41:58;18.30;99.90
60234;DHT22;49514;43.538;-5.708;2023-05-07T06:44:29;18.40;99.90
60234;DHT22;49514;43.538;-5.708;2023-05-07T06:47:08;18.40;99.90
60234;DHT22;49514;43.538;-5.708;2023-05-07T06:49:35;18.60;99.90
60234;DHT22;49514;43.538;-5.708;2023-05-07T06:52:02;18.70;99.90
60234;DHT22;49514;43.538;-5.708;2023-05-07T06:54:29;18.80;99.90
60234;DHT22;49514;43.538;-5.708;2023-05-07T06:56:56;19.00;99.90
60234;DHT22;49514;43.538;-5.708;2023-05-07T06:59:25;19.10;99.90
60234;DHT22;49514;43.538;-5.708;2023-05-07T07:01:52;19.20;99.90
60234;DHT22;49514;43.538;-5.708;2023-05-07T07:04:19;19.30;99.90
60234;DHT22;49514;43.538;-5.708;2023-05-07T07:06:54;19.30;99.90
60234;DHT22;49514;43.538;-5.708;2023-05-07T07:09:20;19.40;99.90
60234;DHT22;49514;43.538;-5.708;2023-05-07T07:11:47;19.50;99.90
60234;DHT22;49514;43.538;-5.708;2023-05-07T07:14:14;19.50;99.90
60234;DHT22;49514;43.538;-5.708;2023-05-07T07:16:46;19.50;99.90
60234;DHT22;49514;43.538;-5.708;2023-05-07T07:19:15;19.40;99.90
60234;DHT22;49514;43.538;-5.708;2023-05-07T07:21:42;19.40;99.90
60234;DHT22;49514;43.538;-5.708;2023-05-07T07:24:13;19.40;99.90
60234;DHT22;49514;43.538;-5.708;2023-05-07T07:26:40;19.40;99.90
60234;DHT22;49514;43.538;-5.708;2023-05-07T07:29:09;19.40;99.90
60234;DHT22;49514;43.538;-5.708;2023-05-07T07:31:36;19.40;99.90
60234;DHT22;49514;43.538;-5.708;2023-05-07T07:34:03;19.50;99.90
60234;DHT22;49514;43.538;-5.708;2023-05-07T07:36:30;19.60;99.90
60234;DHT22;49514;43.538;-5.708;2023-05-07T07:38:57;19.70;99.90
60234;DHT22;49514;43.538;-5.708;2023-05-07T07:41:24;19.80;99.90
60234;DHT22;49514;43.538;-5.708;2023-05-07T07:43:51;19.90;99.90
60234;DHT22;49514;43.538;-5.708;2023-05-07T07:46:20;19.90;99.90
60234;DHT22;49514;43.538;-5.708;2023-05-07T07:48:48;20.00;99.90
60234;DHT22;49514;43.538;-5.708;2023-05-07T07:51:15;20.10;99.90
60234;DHT22;49514;43.538;-5.708;2023-05-07T07:53:42;20.10;99.90
60234;DHT22;49514;43.538;-5.708;2023-05-07T07:56:09;20.10;99.90
60234;DHT22;49514;43.538;-5.708;2023-05-07T07:58:36;20.10;99.90
60234;DHT22;49514;43.538;-5.708;2023-05-07T08:01:04;20.10;99.90
60234;DHT22;49514;43.538;-5.708;2023-05-07T08:03:31;20.20;99.90
60234;DHT22;49514;43.538;-5.708;2023-05-07T08:05:59;20.30;99.90
60234;DHT22;49514;43.538;-5.708;2023-05-07T08:08:27;20.50;99.90
60234;DHT22;49514;43.538;-5.708;2023-05-07T08:10:55;20.90;99.90
60234;DHT22;49514;43.538;-5.708;2023-05-07T08:13:28;21.20;99.90
60234;DHT22;49514;43.538;-5.708;2023-05-07T08:15:55;21.30;99.90
60234;DHT22;49514;43.538;-5.708;2023-05-07T08:18:22;21.30;99.90
60234;DHT22;49514;43.538;-5.708;2023-05-07T08:20:52;21.40;99.90
60234;DHT22;49514;43.538;-5.708;2023-05-07T08:23:22;21.30;99.90
60234;DHT22;49514;43.538;-5.708;2023-05-07T08:25:50;21.30;99.90
60234;DHT22;49514;43.538;-5.708;2023-05-07T08:28:18;21.20;99.90
60234;DHT22;49514;43.538;-5.708;2023-05-07T08:30:46;21.10;99.90
60234;DHT22;49514;43.538;-5.708;2023-05-07T08:33:13;21.10;99.90
60234;DHT22;49514;43.538;-5.708;2023-05-07T08:35:40;20.90;99.90
60234;DHT22;49514;43.538;-5.708;2023-05-07T08:38:08;20.90;99.90
60234;DHT22;49514;43.538;-5.708;2023-05-07T08:40:39;20.90;99.90
60234;DHT22;49514;43.538;-5.708;2023-05-07T08:43:15;20.80;99.90
60234;DHT22;49514;43.538;-5.708;2023-05-07T08:45:45;20.60;99.90
60234;DHT22;49514;43.538;-5.708;2023-05-07T08:48:16;20.60;99.90
60234;DHT22;49514;43.538;-5.708;2023-05-07T08:50:48;20.70;99.90
60234;DHT22;49514;43.538;-5.708;2023-05-07T08:53:18;20.60;99.90
60234;DHT22;49514;43.538;-5.708;2023-05-07T08:55:47;20.60;99.90
60234;DHT22;49514;43.538;-5.708;2023-05-07T08:58:15;20.60;99.90
60234;DHT22;49514;43.538;-5.708;2023-05-07T09:00:43;20.60;99.90
60234;DHT22;49514;43.538;-5.708;2023-05-07T09:03:10;20.50;99.90
60234;DHT22;49514;43.538;-5.708;2023-05-07T09:05:44;20.70;99.90
60234;DHT22;49514;43.538;-5.708;2023-05-07T09:08:15;20.80;99.90
60234;DHT22;49514;43.538;-5.708;2023-05-07T09:10:44;21.00;99.90
60234;DHT22;49514;43.538;-5.708;2023-05-07T09:13:12;20.90;99.90
60234;DHT22;49514;43.538;-5.708;2023-05-07T09:15:42;20.90;99.90
60234;DHT22;49514;43.538;-5.708;2023-05-07T09:18:09;20.60;99.90
60234;DHT22;49514;43.538;-5.708;2023-05-07T09:20:39;20.50;99.90
60234;DHT22;49514;43.538;-5.708;2023-05-07T09:23:08;20.40;99.90
60234;DHT22;49514;43.538;-5.708;2023-05-07T09:25:36;20.30;99.90
60234;DHT22;49514;43.538;-5.708;2023-05-07T09:28:11;20.20;99.90
60234;DHT22;49514;43.538;-5.708;2023-05-07T09:30:38;20.20;99.90
60234;DHT22;49514;43.538;-5.708;2023-05-07T09:33:08;20.30;99.90
60234;DHT22;49514;43.538;-5.708;2023-05-07T09:35:39;20.60;99.90
60234;DHT22;49514;43.538;-5.708;2023-05-07T09:38:10;20.80;99.90
60234;DHT22;49514;43.538;-5.708;2023-05-07T09:40:38;21.10;99.90
60234;DHT22;49514;43.538;-5.708;2023-05-07T09:43:11;21.50;99.90
60234;DHT22;49514;43.538;-5.708;2023-05-07T09:45:43;22.00;99.90
60234;DHT22;49514;43.538;-5.708;2023-05-07T09:48:12;22.40;99.90
60234;DHT22;49514;43.538;-5.708;2023-05-07T09:50:49;22.80;99.90
60234;DHT22;49514;43.538;-5.708;2023-05-07T09:53:22;23.00;99.90
60234;DHT22;49514;43.538;-5.708;2023-05-07T09:55:51;23.20;99.90
60234;DHT22;49514;43.538;-5.708;2023-05-07T09:58:50;23.50;99.90
60234;DHT22;49514;43.538;-5.708;2023-05-07T10:01:19;23.60;99.90
60234;DHT22;49514;43.538;-5.708;2023-05-07T10:03:49;23.80;99.90
60234;DHT22;49514;43.538;-5.708;2023-05-07T10:06:18;23.90;99.90
60234;DHT22;49514;43.538;-5.708;2023-05-07T10:08:46;23.80;99.90
60234;DHT22;49514;43.538;-5.708;2023-05-07T10:11:14;23.90;99.90
60234;DHT22;49514;43.538;-5.708;2023-05-07T10:13:43;23.80;99.90
60234;DHT22;49514;43.538;-5.708;2023-05-07T10:16:10;23.70;99.90
60234;DHT22;49514;43.538;-5.708;2023-05-07T10:18:45;23.20;99.90
60234;DHT22;49514;43.538;-5.708;2023-05-07T10:21:19;22.80;99.90
60234;DHT22;49514;43.538;-5.708;2023-05-07T10:23:57;22.70;99.90
60234;DHT22;49514;43.538;-5.708;2023-05-07T10:26:28;22.50;99.90
60234;DHT22;49514;43.538;-5.708;2023-05-07T10:29:02;22.40;99.90
60234;DHT22;49514;43.538;-5.708;2023-05-07T10:31:54;22.20;99.90
60234;DHT22;49514;43.538;-5.708;2023-05-07T10:34:36;22.50;99.90
60234;DHT22;49514;43.538;-5.708;2023-05-07T10:37:04;22.70;99.90
60234;DHT22;49514;43.538;-5.708;2023-05-07T10:39:32;22.90;99.90
60234;DHT22;49514;43.538;-5.708;2023-05-07T10:42:10;23.10;99.90
60234;DHT22;49514;43.538;-5.708;2023-05-07T10:44:39;23.60;99.90
60234;DHT22;49514;43.538;-5.708;2023-05-07T10:47:12;24.00;99.90
60234;DHT22;49514;43.538;-5.708;2023-05-07T10:52:24;24.50;99.90
60234;DHT22;49514;43.538;-5.708;2023-05-07T10:55:19;24.50;99.90
60234;DHT22;49514;43.538;-5.708;2023-05-07T10:58:27;24.50;99.90
60234;DHT22;49514;43.538;-5.708;2023-05-07T11:01:52;24.10;99.90
60234;DHT22;49514;43.538;-5.708;2023-05-07T11:04:26;24.00;99.90
60234;DHT22;49514;43.538;-5.708;2023-05-07T11:15:40;23.80;99.90
60234;DHT22;49514;43.538;-5.708;2023-05-07T11:18:22;24.20;99.90
60234;DHT22;49514;43.538;-5.708;2023-05-07T11:20:57;24.60;99.90
60234;DHT22;49514;43.538;-5.708;2023-05-07T11:26:12;24.30;99.90
60234;DHT22;49514;43.538;-5.708;2023-05-07T11:28:42;24.00;99.90
60234;DHT22;49514;43.538;-5.708;2023-05-07T11:31:10;23.80;99.90
60234;DHT22;49514;43.538;-5.708;2023-05-07T11:33:38;23.80;99.90
60234;DHT22;49514;43.538;-5.708;2023-05-07T11:36:09;23.70;99.90
60234;DHT22;49514;43.538;-5.708;2023-05-07T11:38:41;23.60;99.90
60234;DHT22;49514;43.538;-5.708;2023-05-07T11:41:08;23.80;99.90
60234;DHT22;49514;43.538;-5.708;2023-05-07T11:43:35;23.80;99.90
60234;DHT22;49514;43.538;-5.708;2023-05-07T11:46:09;24.10;99.90
60234;DHT22;49514;43.538;-5.708;2023-05-07T11:48:36;24.20;99.90
60234;DHT22;49514;43.538;-5.708;2023-05-07T11:51:07;24.40;99.90
60234;DHT22;49514;43.538;-5.708;2023-05-07T11:53:37;24.60;99.90
60234;DHT22;49514;43.538;-5.708;2023-05-07T11:58:34;24.70;99.90
60234;DHT22;49514;43.538;-5.708;2023-05-07T12:01:01;24.60;99.90
60234;DHT22;49514;43.538;-5.708;2023-05-07T12:03:28;24.60;99.90
60234;DHT22;49514;43.538;-5.708;2023-05-07T12:05:55;24.50;99.90
60234;DHT22;49514;43.538;-5.708;2023-05-07T12:08:21;24.40;99.90
60234;DHT22;49514;43.538;-5.708;2023-05-07T12:10:49;24.50;99.90
60234;DHT22;49514;43.538;-5.708;2023-05-07T12:13:22;24.40;99.90
60234;DHT22;49514;43.538;-5.708;2023-05-07T12:15:57;24.80;99.90
60234;DHT22;49514;43.538;-5.708;2023-05-07T12:18:24;25.10;99.90
60234;DHT22;49514;43.538;-5.708;2023-05-07T12:20:51;25.00;99.90
60234;DHT22;49514;43.538;-5.708;2023-05-07T12:23:20;24.90;99.90
60234;DHT22;49514;43.538;-5.708;2023-05-07T12:25:47;24.90;99.90
60234;DHT22;49514;43.538;-5.708;2023-05-07T12:28:18;24.90;99.90
60234;DHT22;49514;43.538;-5.708;2023-05-07T12:30:47;25.00;99.90
60234;DHT22;49514;43.538;-5.708;2023-05-07T12:33:24;25.10;99.90
60234;DHT22;49514;43.538;-5.708;2023-05-07T12:35:54;25.20;99.90
60234;DHT22;49514;43.538;-5.708;2023-05-07T12:38:21;25.10;99.90
60234;DHT22;49514;43.538;-5.708;2023-05-07T12:40:50;25.20;99.90
60234;DHT22;49514;43.538;-5.708;2023-05-07T12:43:21;25.20;99.90
60234;DHT22;49514;43.538;-5.708;2023-05-07T12:45:50;25.30;99.90
60234;DHT22;49514;43.538;-5.708;2023-05-07T12:48:17;25.10;99.90
60234;DHT22;49514;43.538;-5.708;2023-05-07T12:50:48;24.80;99.90
60234;DHT22;49514;43.538;-5.708;2023-05-07T12:53:15;24.20;99.90
60234;DHT22;49514;43.538;-5.708;2023-05-07T12:55:50;24.30;99.90
60234;DHT22;49514;43.538;-5.708;2023-05-07T12:58:28;24.40;99.90
60234;DHT22;49514;43.538;-5.708;2023-05-07T13:00:57;24.50;99.90
60234;DHT22;49514;43.538;-5.708;2023-05-07T13:03:28;24.70;99.90
60234;DHT22;49514;43.538;-5.708;2023-05-07T13:05:57;24.70;99.90
60234;DHT22;49514;43.538;-5.708;2023-05-07T13:08:26;24.90;99.90
60234;DHT22;49514;43.538;-5.708;2023-05-07T13:10:53;25.40;99.90
60234;DHT22;49514;43.538;-5.708;2023-05-07T13:13:21;27.00;99.90
60234;DHT22;49514;43.538;-5.708;2023-05-07T13:15:48;31.00;99.60
60234;DHT22;49514;43.538;-5.708;2023-05-07T13:18:15;32.30;92.60
60234;DHT22;49514;43.538;-5.708;2023-05-07T13:20:41;34.30;86.40
60234;DHT22;49514;43.538;-5.708;2023-05-07T13:23:08;36.40;76.00
60234;DHT22;49514;43.538;-5.708;2023-05-07T13:25:34;37.10;69.70
60234;DHT22;49514;43.538;-5.708;2023-05-07T13:28:00;35.50;68.80
60234;DHT22;49514;43.538;-5.708;2023-05-07T13:30:27;34.50;69.00
60234;DHT22;49514;43.538;-5.708;2023-05-07T13:32:55;35.30;70.10
60234;DHT22;49514;43.538;-5.708;2023-05-07T13:35:21;36.30;68.00
60234;DHT22;49514;43.538;-5.708;2023-05-07T13:37:48;36.00;67.50
60234;DHT22;49514;43.538;-5.708;2023-05-07T13:40:15;34.70;67.10
60234;DHT22;49514;43.538;-5.708;2023-05-07T13:42:41;33.10;68.30
60234;DHT22;49514;43.538;-5.708;2023-05-07T13:45:08;32.30;70.20
60234;DHT22;49514;43.538;-5.708;2023-05-07T13:47:35;31.60;71.90
60234;DHT22;49514;43.538;-5.708;2023-05-07T13:50:02;31.20;72.60
60234;DHT22;49514;43.538;-5.708;2023-05-07T13:52:29;30.50;73.80
60234;DHT22;49514;43.538;-5.708;2023-05-07T13:54:55;30.30;74.70
60234;DHT22;49514;43.538;-5.708;2023-05-07T13:57:22;30.00;73.80
60234;DHT22;49514;43.538;-5.708;2023-05-07T13:59:49;29.60;75.60
60234;DHT22;49514;43.538;-5.708;2023-05-07T14:02:16;28.80;76.60
60234;DHT22;49514;43.538;-5.708;2023-05-07T14:04:43;28.40;77.80
60234;DHT22;49514;43.538;-5.708;2023-05-07T14:07:09;28.10;79.70
60234;DHT22;49514;43.538;-5.708;2023-05-07T14:09:36;27.70;81.60
60234;DHT22;49514;43.538;-5.708;2023-05-07T14:12:03;27.90;81.60
60234;DHT22;49514;43.538;-5.708;2023-05-07T14:14:29;28.40;79.40
60234;DHT22;49514;43.538;-5.708;2023-05-07T14:16:56;30.40;77.10
60234;DHT22;49514;43.538;-5.708;2023-05-07T14:19:23;31.60;74.90
60234;DHT22;49514;43.538;-5.708;2023-05-07T14:21:49;33.60;74.10
60234;DHT22;49514;43.538;-5.708;2023-05-07T14:24:16;37.30;67.90
60234;DHT22;49514;43.538;-5.708;2023-05-07T14:26:42;37.90;65.50
60234;DHT22;49514;43.538;-5.708;2023-05-07T14:29:08;37.60;61.90
60234;DHT22;49514;43.538;-5.708;2023-05-07T14:31:35;36.30;62.10
60234;DHT22;49514;43.538;-5.708;2023-05-07T14:34:01;35.20;62.30
60234;DHT22;49514;43.538;-5.708;2023-05-07T14:36:28;34.30;63.60
60234;DHT22;49514;43.538;-5.708;2023-05-07T14:38:56;33.90;63.70
60234;DHT22;49514;43.538;-5.708;2023-05-07T14:41:25;34.30;64.00
60234;DHT22;49514;43.538;-5.708;2023-05-07T14:43:52;35.10;62.50
60234;DHT22;49514;43.538;-5.708;2023-05-07T14:46:18;34.50;61.20
60234;DHT22;49514;43.538;-5.708;2023-05-07T14:48:45;33.90;62.10
60234;DHT22;49514;43.538;-5.708;2023-05-07T14:51:13;33.80;62.60
60234;DHT22;49514;43.538;-5.708;2023-05-07T14:53:43;33.10;63.10
60234;DHT22;49514;43.538;-5.708;2023-05-07T14:56:10;32.90;64.10
60234;DHT22;49514;43.538;-5.708;2023-05-07T14:58:36;33.10;63.70
60234;DHT22;49514;43.538;-5.708;2023-05-07T15:01:03;33.10;63.40
60234;DHT22;49514;43.538;-5.708;2023-05-07T15:03:29;33.30;64.20
60234;DHT22;49514;43.538;-5.708;2023-05-07T15:05:56;34.30;63.10
60234;DHT22;49514;43.538;-5.708;2023-05-07T15:08:22;34.80;61.30
60234;DHT22;49514;43.538;-5.708;2023-05-07T15:10:49;34.50;61.70
60234;DHT22;49514;43.538;-5.708;2023-05-07T15:13:16;34.40;63.00
60234;DHT22;49514;43.538;-5.708;2023-05-07T15:15:43;33.70;62.20
60234;DHT22;49514;43.538;-5.708;2023-05-07T15:18:12;34.10;63.90
60234;DHT22;49514;43.538;-5.708;2023-05-07T15:20:40;34.70;62.60
60234;DHT22;49514;43.538;-5.708;2023-05-07T15:23:07;35.30;62.80
60234;DHT22;49514;43.538;-5.708;2023-05-07T15:25:37;35.20;62.50
60234;DHT22;49514;43.538;-5.708;2023-05-07T15:28:04;35.80;61.20
60234;DHT22;49514;43.538;-5.708;2023-05-07T15:30:30;35.80;60.00
60234;DHT22;49514;43.538;-5.708;2023-05-07T15:32:57;35.70;59.50
60234;DHT22;49514;43.538;-5.708;2023-05-07T15:35:23;35.80;60.20
60234;DHT22;49514;43.538;-5.708;2023-05-07T15:37:51;36.10;58.90
60234;DHT22;49514;43.538;-5.708;2023-05-07T15:40:21;35.90;59.80
60234;DHT22;49514;43.538;-5.708;2023-05-07T15:42:48;36.00;59.20
60234;DHT22;49514;43.538;-5.708;2023-05-07T15:45:15;37.20;58.60
60234;DHT22;49514;43.538;-5.708;2023-05-07T15:47:41;38.20;57.80
60234;DHT22;49514;43.538;-5.708;2023-05-07T15:50:08;38.30;57.70
60234;DHT22;49514;43.538;-5.708;2023-05-07T15:52:35;38.90;57.30
60234;DHT22;49514;43.538;-5.708;2023-05-07T15:55:02;38.80;56.90
60234;DHT22;49514;43.538;-5.708;2023-05-07T15:57:29;38.10;55.80